createdAt,value
2018-09-24T00:02:12.434Z,3.00
2018-09-24T00:04:41.382Z,2.83
2018-09-24T00:07:10.296Z,2.90
2018-09-24T00:09:51.543Z,2.97
2018-09-24T00:12:20.435Z,3.00
2018-09-24T00:14:49.439Z,3.30
2018-09-24T00:17:18.389Z,3.40
2018-09-24T00:19:47.561Z,3.33
2018-09-24T00:22:16.498Z,3.43
2018-09-24T00:24:45.459Z,4.10
2018-09-24T00:27:16.409Z,4.37
2018-09-24T00:29:45.317Z,4.70
2018-09-24T00:32:14.587Z,4.57
2018-09-24T00:34:43.792Z,4.10
2018-09-24T00:37:19.936Z,4.10
2018-09-24T00:39:49.862Z,4.53
2018-09-24T00:42:18.782Z,4.33
2018-09-24T00:44:47.675Z,5.00
2018-09-24T00:47:16.561Z,5.30
2018-09-24T00:49:47.578Z,4.83
2018-09-24T00:52:22.005Z,5.30
2018-09-24T00:54:55.306Z,4.47
2018-09-24T00:57:24.194Z,5.10
2018-09-24T00:59:53.286Z,4.90
2018-09-24T01:02:22.180Z,5.43
2018-09-24T01:05:06.294Z,5.83
2018-09-24T01:07:35.194Z,5.97
2018-09-24T01:10:04.134Z,5.63
2018-09-24T01:12:33.049Z,5.27
2018-09-24T01:15:02.172Z,5.23
2018-09-24T01:17:31.292Z,5.50
2018-09-24T01:20:00.202Z,5.20
2018-09-24T01:22:34.810Z,5.07
2018-09-24T01:25:04.144Z,5.30
2018-09-24T01:27:39.089Z,6.50
2018-09-24T01:30:31.082Z,7.43
2018-09-24T01:33:00.023Z,8.03
2018-09-24T01:35:41.696Z,8.60
2018-09-24T01:38:24.385Z,8.87
2018-09-24T01:40:53.239Z,8.63
2018-09-24T01:43:22.181Z,8.67
2018-09-24T01:45:52.191Z,8.10
2018-09-24T01:48:21.100Z,8.33
2018-09-24T01:50:50.000Z,8.87
2018-09-24T01:53:18.918Z,8.90
2018-09-24T01:55:50.736Z,9.00
2018-09-24T01:58:19.828Z,7.83
2018-09-24T02:00:58.434Z,8.20
2018-09-24T02:03:34.436Z,6.70
2018-09-24T02:06:04.099Z,6.33
2018-09-24T02:08:33.464Z,6.90
2018-09-24T02:11:08.279Z,6.63
2018-09-24T02:13:46.083Z,6.20
2018-09-24T02:16:15.321Z,7.10
2018-09-24T02:18:44.590Z,7.40
2018-09-24T02:21:13.533Z,7.67
2018-09-24T02:23:42.609Z,7.10
2018-09-24T02:26:13.597Z,6.20
2018-09-24T02:28:46.953Z,5.90
2018-09-24T02:31:15.869Z,5.37
2018-09-24T02:33:44.723Z,4.87
2018-09-24T02:36:13.800Z,5.00
2018-09-24T02:38:48.482Z,6.07
2018-09-24T02:41:17.388Z,4.93
2018-09-24T02:43:46.367Z,4.50
2018-09-24T02:46:15.397Z,4.47
2018-09-24T02:48:44.296Z,4.27
2018-09-24T02:51:16.752Z,4.33
2018-09-24T02:53:45.654Z,4.57
2018-09-24T02:56:21.041Z,4.10
2018-09-24T02:58:49.950Z,4.57
2018-09-24T03:01:19.021Z,4.27
2018-09-24T03:03:52.934Z,3.97
2018-09-24T03:06:21.839Z,4.40
2018-09-24T03:08:50.719Z,4.43
2018-09-24T03:11:19.629Z,4.17
2018-09-24T03:13:48.593Z,4.10
2018-09-24T03:16:17.508Z,4.37
2018-09-24T03:18:55.117Z,4.37
2018-09-24T03:21:24.185Z,4.10
2018-09-24T03:23:53.183Z,4.43
2018-09-24T03:26:22.211Z,3.67
2018-09-24T03:28:52.157Z,4.33
2018-09-24T03:31:21.048Z,3.90
2018-09-24T03:33:50.083Z,4.10
2018-09-24T03:36:19.048Z,4.07
2018-09-24T03:38:48.134Z,4.10
2018-09-24T03:41:17.749Z,4.30
2018-09-24T03:43:46.911Z,4.30
2018-09-24T03:46:15.879Z,4.30
2018-09-24T03:48:44.826Z,4.00
2018-09-24T03:51:14.935Z,4.27
2018-09-24T03:53:43.861Z,4.97
2018-09-24T03:56:16.029Z,4.30
2018-09-24T03:58:48.680Z,4.13
2018-09-24T04:01:18.777Z,4.43
2018-09-24T04:03:47.777Z,4.73
2018-09-24T04:06:26.309Z,5.23
2018-09-24T04:09:00.655Z,4.40
2018-09-24T04:11:37.082Z,4.83
2018-09-24T04:14:11.226Z,4.43
2018-09-24T04:16:58.491Z,4.30
2018-09-24T04:19:34.895Z,3.70
2018-09-24T04:22:14.730Z,3.03
2018-09-24T04:24:49.998Z,3.33
2018-09-24T04:27:24.493Z,3.60
2018-09-24T04:30:02.157Z,3.13
2018-09-24T04:32:40.981Z,3.63
2018-09-24T04:35:15.643Z,4.13
2018-09-24T04:37:50.042Z,4.03
2018-09-24T04:40:24.296Z,4.53
2018-09-24T04:42:58.893Z,3.67
2018-09-24T04:45:35.247Z,3.93
2018-09-24T04:48:09.582Z,3.90
2018-09-24T04:50:47.014Z,3.83
2018-09-24T04:53:23.200Z,3.97
2018-09-24T04:55:57.377Z,3.70
2018-09-24T04:58:31.699Z,3.97
2018-09-24T05:01:05.924Z,3.53
2018-09-24T05:03:41.302Z,3.60
2018-09-24T05:06:16.762Z,3.53
2018-09-24T05:08:50.908Z,3.57
2018-09-24T05:11:30.073Z,3.60
2018-09-24T05:14:11.794Z,3.73
2018-09-24T05:16:46.102Z,3.63
2018-09-24T05:19:20.533Z,3.37
2018-09-24T05:21:54.618Z,4.13
2018-09-24T05:24:33.589Z,3.53
2018-09-24T05:27:07.867Z,3.53
2018-09-24T05:29:42.264Z,3.27
2018-09-24T05:32:16.522Z,3.20
2018-09-24T05:34:57.973Z,3.50
2018-09-24T05:37:34.158Z,3.23
2018-09-24T05:40:08.513Z,4.50
2018-09-24T05:42:43.842Z,3.63
2018-09-24T05:45:18.369Z,4.03
2018-09-24T05:48:00.007Z,3.20
2018-09-24T05:50:39.592Z,3.23
2018-09-24T05:53:13.641Z,3.93
2018-09-24T05:55:51.616Z,3.20
2018-09-24T05:58:31.890Z,3.73
2018-09-24T06:01:06.151Z,3.37
2018-09-24T06:03:40.486Z,3.53
2018-09-24T06:06:20.419Z,3.53
2018-09-24T06:08:55.799Z,3.07
2018-09-24T06:11:31.253Z,2.80
2018-09-24T06:14:09.868Z,2.93
2018-09-24T06:16:44.163Z,2.70
2018-09-24T06:19:18.565Z,3.03
2018-09-24T06:21:52.905Z,3.20
2018-09-24T06:24:28.259Z,2.97
2018-09-24T06:27:04.602Z,3.40
2018-09-24T06:29:44.776Z,3.27
2018-09-24T06:32:19.176Z,2.53
2018-09-24T06:34:59.673Z,2.30
2018-09-24T06:37:33.751Z,2.83
2018-09-24T06:43:03.177Z,2.63
2018-09-24T06:45:41.471Z,2.40
2018-09-24T06:48:15.724Z,2.37
2018-09-24T06:50:49.956Z,2.70
2018-09-24T06:53:24.339Z,2.67
2018-09-24T06:55:58.651Z,3.40
2018-09-24T06:58:43.867Z,3.00
2018-09-24T07:01:23.904Z,2.07
2018-09-24T07:04:04.784Z,2.70
2018-09-24T07:06:39.148Z,2.70
2018-09-24T07:09:14.131Z,2.80
2018-09-24T07:11:48.566Z,3.90
2018-09-24T07:14:31.244Z,3.93
2018-09-24T07:17:05.479Z,4.10
2018-09-24T07:19:50.684Z,3.70
2018-09-24T07:22:25.074Z,4.07
2018-09-24T07:25:01.377Z,4.57
2018-09-24T07:27:43.204Z,4.57
2018-09-24T07:30:18.873Z,5.17
2018-09-24T07:32:58.825Z,5.20
2018-09-24T07:35:38.660Z,5.77
2018-09-24T07:38:15.978Z,5.50
2018-09-24T07:41:00.577Z,5.40
2018-09-24T07:43:39.715Z,4.53
2018-09-24T07:46:14.134Z,4.33
2018-09-24T07:48:53.929Z,4.17
2018-09-24T07:51:34.587Z,3.40
2018-09-24T07:54:14.340Z,3.50
2018-09-24T07:56:49.642Z,4.07
2018-09-24T07:59:24.033Z,3.90
2018-09-24T08:01:58.390Z,3.80
2018-09-24T08:04:38.741Z,3.10
2018-09-24T08:07:14.125Z,3.60
2018-09-24T08:09:55.487Z,3.13
2018-09-24T08:12:47.604Z,2.40
2018-09-24T08:15:23.816Z,2.00
2018-09-24T08:17:58.083Z,3.10
2018-09-24T08:20:32.417Z,3.00
2018-09-24T08:23:23.534Z,2.93
2018-09-24T08:26:03.241Z,2.93
2018-09-24T08:28:38.432Z,3.00
2018-09-24T08:31:12.816Z,3.73
2018-09-24T08:33:47.155Z,3.33
2018-09-24T08:36:25.928Z,2.90
2018-09-24T08:39:08.240Z,2.73
2018-09-24T08:41:46.951Z,2.60
2018-09-24T08:44:21.217Z,2.07
2018-09-24T08:46:56.592Z,2.40
2018-09-24T08:49:31.868Z,2.37
2018-09-24T08:52:07.142Z,2.40
2018-09-24T08:54:46.495Z,1.80
2018-09-24T08:57:20.728Z,1.87
2018-09-24T08:59:58.143Z,2.03
2018-09-24T09:02:38.677Z,1.87
2018-09-24T09:05:18.958Z,1.63
2018-09-24T09:07:55.275Z,1.70
2018-09-24T09:10:29.458Z,1.80
2018-09-24T09:13:05.761Z,1.40
2018-09-24T09:15:41.014Z,1.40
2018-09-24T09:18:15.402Z,1.80
2018-09-24T09:20:49.609Z,1.53
2018-09-24T09:23:29.844Z,1.30
2018-09-24T09:26:07.225Z,2.50
2018-09-24T09:28:45.482Z,2.43
2018-09-24T09:31:19.826Z,1.70
2018-09-24T09:33:55.194Z,1.77
2018-09-24T09:36:31.534Z,1.70
2018-09-24T09:39:05.757Z,1.50
2018-09-24T09:41:41.055Z,1.57
2018-09-24T09:44:15.293Z,1.40
2018-09-24T09:47:00.319Z,1.10
2018-09-24T09:49:35.622Z,1.10
2018-09-24T09:52:13.797Z,1.20
2018-09-24T09:54:50.161Z,1.10
2018-09-24T09:57:26.561Z,1.37
2018-09-24T10:00:18.503Z,1.30
2018-09-24T10:02:54.780Z,1.40
2018-09-24T10:05:34.243Z,1.40
2018-09-24T10:08:18.594Z,1.50
2018-09-24T10:11:00.641Z,1.30
2018-09-24T10:13:35.085Z,1.33
2018-09-24T10:16:12.772Z,0.90
2018-09-24T10:18:48.242Z,1.10
2018-09-24T10:21:23.688Z,1.00
2018-09-24T10:23:58.911Z,1.00
2018-09-24T10:26:38.477Z,1.30
2018-09-24T10:29:27.917Z,1.40
2018-09-24T10:32:08.977Z,1.40
2018-09-24T10:34:43.393Z,1.23
2018-09-24T10:37:21.669Z,1.20
2018-09-24T10:39:57.037Z,3.40
2018-09-24T10:42:33.270Z,1.30
2018-09-24T10:45:07.560Z,1.17
2018-09-24T10:47:42.926Z,1.20
2018-09-24T10:50:30.418Z,1.00
2018-09-24T10:53:08.372Z,1.07
2018-09-24T10:55:44.801Z,0.90
2018-09-24T10:58:20.022Z,0.70
2018-09-24T11:00:56.504Z,1.10
2018-09-24T11:03:36.246Z,1.03
2018-09-24T11:06:13.655Z,0.77
2018-09-24T11:08:52.481Z,1.03
2018-09-24T11:11:26.828Z,1.13
2018-09-24T11:14:01.077Z,0.80
2018-09-24T11:16:42.177Z,0.73
2018-09-24T11:19:16.187Z,1.00
2018-09-24T11:21:52.508Z,0.80
2018-09-24T11:24:33.838Z,1.20
2018-09-24T11:27:08.965Z,0.97
2018-09-24T11:29:48.767Z,1.00
2018-09-24T11:32:24.016Z,1.20
2018-09-24T11:35:10.314Z,1.00
2018-09-24T11:37:50.064Z,0.77
2018-09-24T11:40:31.170Z,0.80
2018-09-24T11:43:12.012Z,0.97
2018-09-24T11:45:47.330Z,1.00
2018-09-24T11:48:27.357Z,0.87
2018-09-24T11:51:08.727Z,0.97
2018-09-24T11:53:42.966Z,1.07
2018-09-24T11:56:30.053Z,1.10
2018-09-24T11:59:08.025Z,1.00
2018-09-24T12:01:43.281Z,1.03
2018-09-24T12:04:17.488Z,0.90
2018-09-24T12:06:56.416Z,1.20
2018-09-24T12:09:34.503Z,1.40
2018-09-24T12:12:28.172Z,1.03
2018-09-24T12:15:02.543Z,0.90
2018-09-24T12:17:37.855Z,0.80
2018-09-24T12:20:24.789Z,1.00
2018-09-24T12:23:02.889Z,0.90
2018-09-24T12:25:40.864Z,0.97
2018-09-24T12:28:20.941Z,0.90
2018-09-24T12:31:01.049Z,1.03
2018-09-24T12:33:39.332Z,1.00
2018-09-24T12:36:15.747Z,1.00
2018-09-24T12:38:50.085Z,1.00
2018-09-24T12:41:24.388Z,1.10
2018-09-24T12:43:58.535Z,0.90
2018-09-24T12:46:39.500Z,0.80
2018-09-24T12:49:13.788Z,1.50
2018-09-24T12:51:53.874Z,1.10
2018-09-24T12:54:34.384Z,1.50
2018-09-24T12:57:10.690Z,1.13
2018-09-24T12:59:47.132Z,1.30
2018-09-24T13:02:21.220Z,1.13
2018-09-24T13:04:55.502Z,1.40
2018-09-24T13:07:29.667Z,1.20
2018-09-24T13:10:04.123Z,1.10
2018-09-24T13:12:43.065Z,1.27
2018-09-24T13:15:25.269Z,1.10
2018-09-24T13:18:00.576Z,1.13
2018-09-24T13:20:35.866Z,1.40
2018-09-24T13:23:10.287Z,1.20
2018-09-24T13:25:48.090Z,1.37
2018-09-24T13:28:28.847Z,1.10
2018-09-24T13:31:04.086Z,1.20
2018-09-24T13:33:39.500Z,1.30
2018-09-24T13:36:18.352Z,1.10
2018-09-24T13:38:57.437Z,1.20
2018-09-24T13:41:35.510Z,1.90
2018-09-24T13:44:11.737Z,2.87
2018-09-24T13:46:46.052Z,2.10
2018-09-24T13:49:30.411Z,1.73
2018-09-24T13:52:08.812Z,1.43
2018-09-24T13:54:44.148Z,1.20
2018-09-24T13:57:23.984Z,0.87
2018-09-24T13:59:59.252Z,1.30
2018-09-24T14:02:37.697Z,1.30
2018-09-24T14:05:12.219Z,0.90
2018-09-24T14:07:47.483Z,1.10
2018-09-24T14:10:28.191Z,1.17
2018-09-24T14:13:02.638Z,0.90
2018-09-24T14:15:36.889Z,1.30
2018-09-24T14:18:11.195Z,0.90
2018-09-24T14:20:46.463Z,0.80
2018-09-24T14:23:20.711Z,0.80
2018-09-24T14:25:56.158Z,1.00
2018-09-24T14:28:30.341Z,1.40
2018-09-24T14:31:10.202Z,1.37
2018-09-24T14:33:45.313Z,1.20
2018-09-24T14:36:20.647Z,1.40
2018-09-24T14:38:58.424Z,1.27
2018-09-24T14:41:36.368Z,1.30
2018-09-24T14:44:10.775Z,1.20
2018-09-24T14:46:51.996Z,1.17
2018-09-24T14:49:26.344Z,1.33
2018-09-24T14:52:06.253Z,1.07
2018-09-24T14:54:42.584Z,1.33
2018-09-24T14:57:18.036Z,0.90
2018-09-24T14:59:54.341Z,1.23
2018-09-24T15:02:33.956Z,1.30
2018-09-24T15:05:10.294Z,1.40
2018-09-24T15:07:44.774Z,1.10
2018-09-24T15:10:20.214Z,1.17
2018-09-24T15:12:54.613Z,2.00
2018-09-24T15:15:31.020Z,1.57
2018-09-24T15:18:10.440Z,1.57
2018-09-24T15:20:48.393Z,1.23
2018-09-24T15:23:26.471Z,1.10
2018-09-24T15:26:02.894Z,1.10
2018-09-24T15:28:40.953Z,1.40
2018-09-24T15:31:19.029Z,1.50
2018-09-24T15:33:54.332Z,1.07
2018-09-24T15:36:36.208Z,1.30
2018-09-24T15:39:22.450Z,1.47
2018-09-24T15:42:03.355Z,1.53
2018-09-24T15:44:38.665Z,1.30
2018-09-24T15:47:15.096Z,1.60
2018-09-24T15:49:56.875Z,1.70
2018-09-24T15:52:37.780Z,2.00
2018-09-24T15:55:15.353Z,1.60
2018-09-24T15:57:50.740Z,1.90
2018-09-24T16:00:25.143Z,1.67
2018-09-24T16:03:06.470Z,1.73
2018-09-24T16:05:41.720Z,2.10
2018-09-24T16:08:24.500Z,2.53
2018-09-24T16:11:06.486Z,2.33
2018-09-24T16:13:43.019Z,2.53
2018-09-24T16:16:17.392Z,2.30
2018-09-24T16:18:51.743Z,2.60
2018-09-24T16:21:26.966Z,2.43
2018-09-24T16:24:11.683Z,1.60
2018-09-24T16:26:46.123Z,1.40
2018-09-24T16:29:20.345Z,2.03
2018-09-24T16:32:11.743Z,1.70
2018-09-24T16:34:51.572Z,1.30
2018-09-24T16:37:26.019Z,1.10
2018-09-24T16:40:03.577Z,1.37
2018-09-24T16:42:38.180Z,1.57
2018-09-24T16:45:12.807Z,1.10
2018-09-24T16:47:47.231Z,1.20
2018-09-24T16:50:29.411Z,1.27
2018-09-24T16:53:08.843Z,1.40
2018-09-24T16:55:44.152Z,1.60
2018-09-24T16:58:20.379Z,1.70
2018-09-24T17:00:54.653Z,2.23
2018-09-24T17:03:30.000Z,1.60
2018-09-24T17:06:04.201Z,1.83
2018-09-24T17:08:38.495Z,1.53
2018-09-24T17:11:24.221Z,1.50
2018-09-24T17:14:04.974Z,1.20
2018-09-24T17:16:47.500Z,1.67
2018-09-24T17:19:27.641Z,1.43
2018-09-24T17:22:06.879Z,1.70
2018-09-24T17:24:41.211Z,1.47
2018-09-24T17:27:17.835Z,1.60
2018-09-24T17:29:55.983Z,1.30
2018-09-24T17:32:30.301Z,1.70
2018-09-24T17:35:07.957Z,1.50
2018-09-24T17:37:44.112Z,1.40
2018-09-24T17:40:20.407Z,1.47
2018-09-24T17:42:55.753Z,1.17
2018-09-24T17:45:31.268Z,1.50
2018-09-24T17:48:07.577Z,1.43
2018-09-24T17:50:51.706Z,1.70
2018-09-24T17:53:27.965Z,1.73
2018-09-24T17:56:10.465Z,2.40
2018-09-24T17:58:54.362Z,2.00
2018-09-24T18:01:33.993Z,3.17
2018-09-24T18:04:08.312Z,2.50
2018-09-24T18:06:46.174Z,2.70
2018-09-24T18:09:26.193Z,2.30
2018-09-24T18:12:00.327Z,1.83
2018-09-24T18:14:39.608Z,1.70
2018-09-24T18:17:13.940Z,1.80
2018-09-24T18:19:48.370Z,1.70
2018-09-24T18:22:26.602Z,2.50
2018-09-24T18:25:02.899Z,2.90
2018-09-24T18:27:37.195Z,3.17
2018-09-24T18:30:11.309Z,2.70
2018-09-24T18:32:50.263Z,2.77
2018-09-24T18:35:26.678Z,3.17
2018-09-24T18:38:06.104Z,2.93
2018-09-24T18:40:40.381Z,3.37
2018-09-24T18:43:16.781Z,3.13
2018-09-24T18:45:52.299Z,3.43
2018-09-24T18:48:30.563Z,3.03
2018-09-24T18:51:05.916Z,2.57
2018-09-24T18:53:42.195Z,2.97
2018-09-24T18:56:17.579Z,2.40
2018-09-24T18:58:55.042Z,2.57
2018-09-24T19:01:31.395Z,2.70
2018-09-24T19:04:05.778Z,2.37
2018-09-24T19:06:40.079Z,3.23
2018-09-24T19:09:14.616Z,2.90
2018-09-24T19:11:56.205Z,3.43
2018-09-24T19:14:30.486Z,2.73
2018-09-24T19:17:04.893Z,2.33
2018-09-24T19:19:42.894Z,2.73
2018-09-24T19:22:17.350Z,2.20
2018-09-24T19:24:52.917Z,1.67
2018-09-24T19:27:27.210Z,2.27
2018-09-24T19:30:01.466Z,2.50
2018-09-24T19:32:35.999Z,2.10
2018-09-24T19:35:10.334Z,2.40
2018-09-24T19:37:44.666Z,2.70
2018-09-24T19:40:22.750Z,2.50
2018-09-24T19:42:57.317Z,2.83
2018-09-24T19:45:32.632Z,3.17
2018-09-24T19:48:06.952Z,3.27
2018-09-24T19:50:41.298Z,3.07
2018-09-24T19:53:15.693Z,2.93
2018-09-24T19:55:50.004Z,2.20
2018-09-24T19:58:24.339Z,2.10
2018-09-24T20:00:59.874Z,2.17
2018-09-24T20:03:34.284Z,2.27
2018-09-24T20:06:19.514Z,2.87
2018-09-24T20:09:06.406Z,2.20
2018-09-24T20:11:46.523Z,2.10
2018-09-24T20:14:25.947Z,2.13
2018-09-24T20:17:05.923Z,2.80
2018-09-24T20:19:40.293Z,2.43
2018-09-24T20:22:15.580Z,2.53
2018-09-24T20:24:54.207Z,2.20
2018-09-24T20:27:29.675Z,2.00
2018-09-24T20:30:03.958Z,1.90
2018-09-24T20:32:38.366Z,2.10
2018-09-24T20:35:13.030Z,2.20
2018-09-24T20:37:53.537Z,2.20
2018-09-24T20:40:39.366Z,2.60
2018-09-24T20:43:13.644Z,2.60
2018-09-24T20:45:55.274Z,2.07
2018-09-24T20:48:33.749Z,2.40
2018-09-24T20:54:01.819Z,2.80
2018-09-24T20:56:46.029Z,3.80
2018-09-24T20:59:37.069Z,3.60
2018-09-24T21:02:11.387Z,2.90
2018-09-24T21:04:45.733Z,2.43
2018-09-24T21:07:25.521Z,2.87
2018-09-24T21:09:59.963Z,3.03
2018-09-24T21:12:34.247Z,2.30
2018-09-24T21:15:13.013Z,2.10
2018-09-24T21:17:47.339Z,2.30
2018-09-24T21:20:22.557Z,2.30
2018-09-24T21:22:56.987Z,2.87
2018-09-24T21:25:31.265Z,3.13
2018-09-24T21:28:07.428Z,2.60
2018-09-24T21:30:49.714Z,2.90
2018-09-24T21:33:24.034Z,2.73
2018-09-24T21:35:58.342Z,2.87
2018-09-24T21:38:33.812Z,2.70
2018-09-24T21:41:08.207Z,2.77
2018-09-24T21:43:43.565Z,3.03
2018-09-24T21:46:18.267Z,2.50
2018-09-24T21:49:02.082Z,2.53
2018-09-24T21:51:40.559Z,2.90
2018-09-24T21:54:21.003Z,3.00
2018-09-24T21:56:59.371Z,2.43
2018-09-24T21:59:37.352Z,2.27
2018-09-24T22:02:18.606Z,2.57
2018-09-24T22:04:55.968Z,2.37
2018-09-24T22:07:30.310Z,2.30
2018-09-24T22:10:04.764Z,2.77
2018-09-24T22:12:41.206Z,2.47
2018-09-24T22:15:15.541Z,2.77
2018-09-24T22:17:49.869Z,2.50
2018-09-24T22:20:24.098Z,2.57
2018-09-24T22:22:58.649Z,2.33
2018-09-24T22:25:32.945Z,2.37
2018-09-24T22:28:07.227Z,2.37
2018-09-24T22:30:41.538Z,2.60
2018-09-24T22:33:22.833Z,2.33
2018-09-24T22:36:02.856Z,2.37
2018-09-24T22:38:37.287Z,2.23
2018-09-24T22:41:23.412Z,2.53
2018-09-24T22:43:57.820Z,2.40
2018-09-24T22:46:36.064Z,2.83
2018-09-24T22:49:11.500Z,2.20
2018-09-24T22:51:45.822Z,2.20
2018-09-24T22:54:25.992Z,2.30
2018-09-24T22:57:00.256Z,2.37
2018-09-24T22:59:34.819Z,2.50
2018-09-24T23:02:16.502Z,2.53
2018-09-24T23:05:01.367Z,2.27
2018-09-24T23:07:35.803Z,2.40
2018-09-24T23:10:16.110Z,2.10
2018-09-24T23:12:56.206Z,2.33
2018-09-24T23:15:47.211Z,2.00
2018-09-24T23:18:25.943Z,2.23
2018-09-24T23:21:01.226Z,2.30
2018-09-24T23:23:35.566Z,2.57
2018-09-24T23:26:10.044Z,2.60
2018-09-24T23:28:48.308Z,2.83
2018-09-24T23:31:26.221Z,2.10
2018-09-24T23:34:18.688Z,2.20
2018-09-24T23:36:53.018Z,2.20
2018-09-24T23:39:27.169Z,2.30
2018-09-24T23:42:01.306Z,2.70
2018-09-24T23:44:35.613Z,2.10
2018-09-24T23:47:09.898Z,2.30
2018-09-24T23:49:44.372Z,2.10
2018-09-24T23:52:18.543Z,2.60
2018-09-24T23:54:52.903Z,1.80
2018-09-24T23:57:27.157Z,2.40
